createdAt,value
2017-01-30T00:00:10.510Z,930.04
2017-01-30T00:00:30.263Z,930.08
2017-01-30T00:00:50.656Z,930.06
2017-01-30T00:01:11.122Z,930.01
2017-01-30T00:01:31.563Z,929.99
2017-01-30T00:01:52.069Z,930.04
2017-01-30T00:02:12.454Z,930.05
2017-01-30T00:02:32.239Z,930
2017-01-30T00:02:52.669Z,929.99
2017-01-30T00:03:13.063Z,929.98
2017-01-30T00:03:33.494Z,930
2017-01-30T00:03:53.266Z,929.92
2017-01-30T00:04:13.670Z,929.98
2017-01-30T00:04:34.095Z,930
2017-01-30T00:04:54.463Z,929.99
2017-01-30T00:05:14.873Z,929.97
2017-01-30T00:05:35.235Z,929.97
2017-01-30T00:05:54.966Z,929.97
2017-01-30T00:06:15.378Z,929.99
2017-01-30T00:06:35.813Z,930
2017-01-30T00:06:56.267Z,929.99
2017-01-30T00:07:16.685Z,929.98
2017-01-30T00:07:37.089Z,930.03
2017-01-30T00:07:57.460Z,930.07
2017-01-30T00:08:17.886Z,930.11
2017-01-30T00:08:38.289Z,930.06
2017-01-30T00:08:58.038Z,930.08
2017-01-30T00:09:18.432Z,930.12
2017-01-30T00:09:38.852Z,930.12
2017-01-30T00:09:59.278Z,930.13
2017-01-30T00:10:33.449Z,930.11
2017-01-30T00:10:52.560Z,930.12
2017-01-30T00:11:12.949Z,930.08
2017-01-30T00:11:33.334Z,930.08
2017-01-30T00:11:53.771Z,930.09
2017-01-30T00:12:14.223Z,930.08
2017-01-30T00:12:34.660Z,930.07
2017-01-30T00:12:55.068Z,930.04
2017-01-30T00:13:15.468Z,930.03
2017-01-30T00:13:35.847Z,930.01
2017-01-30T00:13:55.598Z,930.02
2017-01-30T00:14:16.004Z,930
2017-01-30T00:14:36.389Z,930.02
2017-01-30T00:14:56.767Z,929.99
2017-01-30T00:15:16.510Z,929.96
2017-01-30T00:15:36.901Z,929.98
2017-01-30T00:15:57.312Z,929.95
2017-01-30T00:16:17.705Z,929.98
2017-01-30T00:16:38.091Z,929.96
2017-01-30T00:16:58.000Z,929.95
2017-01-30T00:17:18.351Z,929.99
2017-01-30T00:17:38.733Z,929.93
2017-01-30T00:17:58.484Z,929.96
2017-01-30T00:18:18.894Z,929.96
2017-01-30T00:18:39.327Z,929.93
2017-01-30T00:18:59.754Z,929.96
2017-01-30T00:19:20.185Z,929.91
2017-01-30T00:19:40.599Z,929.99
2017-01-30T00:20:01.003Z,929.95
2017-01-30T00:20:20.133Z,929.95
2017-01-30T00:20:40.589Z,929.99
2017-01-30T00:21:01.006Z,929.96
2017-01-30T00:21:21.384Z,929.96
2017-01-30T00:21:41.788Z,929.98
2017-01-30T00:22:02.203Z,929.95
2017-01-30T00:22:21.953Z,930
2017-01-30T00:22:42.351Z,929.99
2017-01-30T00:23:02.729Z,930
2017-01-30T00:23:23.148Z,929.96
2017-01-30T00:23:43.550Z,930.04
2017-01-30T00:24:03.951Z,930
2017-01-30T00:24:24.385Z,930.02
2017-01-30T00:24:44.157Z,930.06
2017-01-30T00:25:04.593Z,930.08
2017-01-30T00:25:24.979Z,930.04
2017-01-30T00:25:45.375Z,930.08
2017-01-30T00:26:05.776Z,930.09
2017-01-30T00:26:24.877Z,930.14
2017-01-30T00:26:45.270Z,930.11
2017-01-30T00:27:05.790Z,930.08
2017-01-30T00:27:26.167Z,930.11
2017-01-30T00:27:46.564Z,930.08
2017-01-30T00:28:06.948Z,930.08
2017-01-30T00:28:26.036Z,930.09
2017-01-30T00:28:45.759Z,930.12
2017-01-30T00:29:06.142Z,930.09
2017-01-30T00:29:25.887Z,930.09
2017-01-30T00:29:46.294Z,930.08
2017-01-30T00:30:06.697Z,930.1
2017-01-30T00:30:27.119Z,930.09
2017-01-30T00:30:47.550Z,930.07
2017-01-30T00:31:07.935Z,930.08
2017-01-30T00:31:28.329Z,930.13
2017-01-30T00:31:48.704Z,930.09
2017-01-30T00:32:09.110Z,930.09
2017-01-30T00:32:29.498Z,930.08
2017-01-30T00:32:49.928Z,930.08
2017-01-30T00:33:10.314Z,930.12
2017-01-30T00:33:30.721Z,930.1
2017-01-30T00:33:51.132Z,930.11
2017-01-30T00:34:10.897Z,930.13
2017-01-30T00:34:31.314Z,930.15
2017-01-30T00:34:51.729Z,930.1
2017-01-30T00:35:11.488Z,930.1
2017-01-30T00:35:31.915Z,930.16
2017-01-30T00:35:51.636Z,930.15
2017-01-30T00:36:11.984Z,930.19
2017-01-30T00:36:32.439Z,930.2
2017-01-30T00:36:52.970Z,930.23
2017-01-30T00:37:13.377Z,930.2
2017-01-30T00:37:33.772Z,930.19
2017-01-30T00:37:53.507Z,930.15
2017-01-30T00:38:13.224Z,930.19
2017-01-30T00:38:33.624Z,930.18
2017-01-30T00:38:54.036Z,930.11
2017-01-30T00:39:14.441Z,930.17
2017-01-30T00:39:34.839Z,930.2
2017-01-30T00:39:55.246Z,930.2
2017-01-30T00:40:15.845Z,930.15
2017-01-30T00:40:36.249Z,930.17
2017-01-30T00:40:56.673Z,930.15
2017-01-30T00:41:17.072Z,930.16
2017-01-30T00:41:37.484Z,930.17
2017-01-30T00:41:57.895Z,930.15
2017-01-30T00:42:18.320Z,930.13
2017-01-30T00:42:38.720Z,930.17
2017-01-30T00:42:59.167Z,930.11
2017-01-30T00:43:19.562Z,930.16
2017-01-30T00:43:39.976Z,930.15
2017-01-30T00:44:00.391Z,930.2
2017-01-30T00:44:20.806Z,930.2
2017-01-30T00:44:41.205Z,930.17
2017-01-30T00:45:01.613Z,930.18
2017-01-30T00:45:21.395Z,930.16
2017-01-30T00:45:41.827Z,930.2
2017-01-30T00:46:01.596Z,930.2
2017-01-30T00:46:22.016Z,930.21
2017-01-30T00:46:42.418Z,930.2
2017-01-30T00:47:02.203Z,930.22
2017-01-30T00:47:21.963Z,930.19
2017-01-30T00:47:42.349Z,930.21
2017-01-30T00:48:02.790Z,930.17
2017-01-30T00:48:22.542Z,930.15
2017-01-30T00:48:42.942Z,930.17
2017-01-30T00:49:03.341Z,930.18
2017-01-30T00:49:25.501Z,930.17
2017-01-30T00:49:45.909Z,930.23
2017-01-30T00:50:05.648Z,930.19
2017-01-30T00:50:25.431Z,930.22
2017-01-30T00:50:45.834Z,930.23
2017-01-30T00:51:06.202Z,930.27
2017-01-30T00:51:26.636Z,930.28
2017-01-30T00:51:47.059Z,930.28
2017-01-30T00:52:07.464Z,930.24
2017-01-30T00:52:25.944Z,930.28
2017-01-30T00:52:46.332Z,930.27
2017-01-30T00:53:06.727Z,930.29
2017-01-30T00:53:26.485Z,930.28
2017-01-30T00:53:46.896Z,930.27
2017-01-30T00:54:07.253Z,930.24
2017-01-30T00:54:27.072Z,930.25
2017-01-30T00:54:47.495Z,930.26
2017-01-30T00:55:07.921Z,930.25
2017-01-30T00:55:28.364Z,930.27
2017-01-30T00:55:48.818Z,930.27
2017-01-30T00:56:08.557Z,930.25
2017-01-30T00:56:28.304Z,930.2
2017-01-30T00:56:48.738Z,930.19
2017-01-30T00:57:09.095Z,930.17
2017-01-30T00:57:29.453Z,930.21
2017-01-30T00:57:49.910Z,930.23
2017-01-30T00:58:10.290Z,930.25
2017-01-30T00:58:30.707Z,930.22
2017-01-30T00:58:51.111Z,930.23
2017-01-30T00:59:11.519Z,930.26
2017-01-30T00:59:31.923Z,930.24
2017-01-30T00:59:51.671Z,930.25
2017-01-30T01:00:12.068Z,930.26
2017-01-30T01:00:32.482Z,930.25
2017-01-30T01:00:52.909Z,930.25
2017-01-30T01:01:13.315Z,930.27
2017-01-30T01:01:33.747Z,930.27
2017-01-30T01:01:54.134Z,930.28
2017-01-30T01:02:14.571Z,930.26
2017-01-30T01:02:34.963Z,930.31
2017-01-30T01:02:54.738Z,930.27
2017-01-30T01:03:15.168Z,930.27
2017-01-30T01:03:35.541Z,930.3
2017-01-30T01:03:55.965Z,930.31
2017-01-30T01:04:15.703Z,930.3
2017-01-30T01:04:36.086Z,930.32
2017-01-30T01:04:56.516Z,930.35
2017-01-30T01:05:16.961Z,930.3
2017-01-30T01:05:37.362Z,930.33
2017-01-30T01:05:57.120Z,930.32
2017-01-30T01:06:17.517Z,930.35
2017-01-30T01:06:37.929Z,930.35
2017-01-30T01:06:58.328Z,930.33
2017-01-30T01:07:18.728Z,930.37
2017-01-30T01:07:39.133Z,930.34
2017-01-30T01:07:59.574Z,930.34
2017-01-30T01:08:19.334Z,930.34
2017-01-30T01:08:39.732Z,930.33
2017-01-30T01:08:59.495Z,930.32
2017-01-30T01:09:19.918Z,930.34
2017-01-30T01:09:39.691Z,930.31
2017-01-30T01:10:00.055Z,930.36
2017-01-30T01:10:19.250Z,930.32
2017-01-30T01:10:39.645Z,930.33
2017-01-30T01:11:00.069Z,930.34
2017-01-30T01:11:19.867Z,930.34
2017-01-30T01:11:40.264Z,930.32
2017-01-30T01:12:00.649Z,930.31
2017-01-30T01:12:20.417Z,930.33
2017-01-30T01:12:40.824Z,930.3
2017-01-30T01:13:01.256Z,930.32
2017-01-30T01:13:21.031Z,930.33
2017-01-30T01:13:41.402Z,930.32
2017-01-30T01:14:01.825Z,930.34
2017-01-30T01:14:22.207Z,930.33
2017-01-30T01:14:42.613Z,930.34
2017-01-30T01:15:03.044Z,930.34
2017-01-30T01:15:22.185Z,930.35
2017-01-30T01:15:42.624Z,930.35
2017-01-30T01:16:03.011Z,930.35
2017-01-30T01:16:22.145Z,930.33
2017-01-30T01:16:42.558Z,930.35
2017-01-30T01:17:02.995Z,930.37
2017-01-30T01:17:22.114Z,930.38
2017-01-30T01:17:42.512Z,930.37
2017-01-30T01:18:02.914Z,930.33
2017-01-30T01:18:23.312Z,930.35
2017-01-30T01:18:43.098Z,930.36
2017-01-30T01:19:03.515Z,930.36
2017-01-30T01:19:23.901Z,930.35
2017-01-30T01:19:44.283Z,930.38
2017-01-30T01:20:04.012Z,930.38
2017-01-30T01:20:24.590Z,930.36
2017-01-30T01:20:44.999Z,930.39
2017-01-30T01:21:04.767Z,930.41
2017-01-30T01:21:24.510Z,930.43
2017-01-30T01:21:44.923Z,930.44
2017-01-30T01:22:05.343Z,930.45
2017-01-30T01:22:25.743Z,930.45
2017-01-30T01:22:46.134Z,930.48
2017-01-30T01:23:05.926Z,930.49
2017-01-30T01:23:25.703Z,930.5
2017-01-30T01:23:46.110Z,930.47
2017-01-30T01:24:06.542Z,930.5
2017-01-30T01:24:26.933Z,930.51
2017-01-30T01:24:47.297Z,930.49
2017-01-30T01:25:07.702Z,930.52
2017-01-30T01:25:28.055Z,930.51
2017-01-30T01:25:48.496Z,930.53
2017-01-30T01:26:08.862Z,930.49
2017-01-30T01:26:28.629Z,930.55
2017-01-30T01:26:49.012Z,930.53
2017-01-30T01:27:09.410Z,930.48
2017-01-30T01:27:29.807Z,930.53
2017-01-30T01:27:50.206Z,930.53
2017-01-30T01:28:10.611Z,930.49
2017-01-30T01:28:30.971Z,930.5
2017-01-30T01:28:51.354Z,930.5
2017-01-30T01:29:11.085Z,930.53
2017-01-30T01:29:31.470Z,930.56
2017-01-30T01:29:51.868Z,930.55
2017-01-30T01:30:12.253Z,930.57
2017-01-30T01:30:32.673Z,930.56
2017-01-30T01:30:53.078Z,930.53
2017-01-30T01:31:13.514Z,930.54
2017-01-30T01:31:33.923Z,930.52
2017-01-30T01:31:54.323Z,930.58
2017-01-30T01:32:14.081Z,930.59
2017-01-30T01:32:34.516Z,930.55
2017-01-30T01:32:54.902Z,930.53
2017-01-30T01:33:15.294Z,930.53
2017-01-30T01:33:35.061Z,930.54
2017-01-30T01:33:55.464Z,930.54
2017-01-30T01:34:14.598Z,930.55
2017-01-30T01:34:35.001Z,930.49
2017-01-30T01:34:55.402Z,930.51
2017-01-30T01:35:15.802Z,930.49
2017-01-30T01:35:36.189Z,930.47
2017-01-30T01:35:56.576Z,930.47
2017-01-30T01:36:16.360Z,930.51
2017-01-30T01:36:36.743Z,930.43
2017-01-30T01:36:57.150Z,930.47
2017-01-30T01:37:17.570Z,930.48
2017-01-30T01:37:37.968Z,930.48
2017-01-30T01:37:58.371Z,930.46
2017-01-30T01:38:18.791Z,930.48
2017-01-30T01:38:39.141Z,930.46
2017-01-30T01:38:58.894Z,930.49
2017-01-30T01:39:18.661Z,930.47
2017-01-30T01:39:39.080Z,930.51
2017-01-30T01:39:58.827Z,930.49
2017-01-30T01:40:19.207Z,930.49
2017-01-30T01:40:39.607Z,930.4
2017-01-30T01:40:59.369Z,930.47
2017-01-30T01:41:19.795Z,930.49
2017-01-30T01:41:40.150Z,930.5
2017-01-30T01:42:00.594Z,930.45
2017-01-30T01:42:20.978Z,930.47
2017-01-30T01:42:41.366Z,930.48
2017-01-30T01:43:01.763Z,930.41
2017-01-30T01:43:22.204Z,930.47
2017-01-30T01:43:42.599Z,930.46
2017-01-30T01:44:02.389Z,930.44
2017-01-30T01:44:22.798Z,930.45
2017-01-30T01:44:43.220Z,930.44
2017-01-30T01:45:03.602Z,930.5
2017-01-30T01:45:24.009Z,930.49
2017-01-30T01:45:44.382Z,930.47
2017-01-30T01:46:04.139Z,930.51
2017-01-30T01:46:24.505Z,930.48
2017-01-30T01:46:45.098Z,930.45
2017-01-30T01:47:05.513Z,930.48
2017-01-30T01:47:25.933Z,930.47
2017-01-30T01:47:46.359Z,930.49
2017-01-30T01:48:06.757Z,930.44
2017-01-30T01:48:26.521Z,930.43
2017-01-30T01:48:46.969Z,930.39
2017-01-30T01:49:07.381Z,930.41
2017-01-30T01:49:27.790Z,930.42
2017-01-30T01:49:48.224Z,930.4
2017-01-30T01:50:08.616Z,930.33
2017-01-30T01:50:29.018Z,930.37
2017-01-30T01:50:49.448Z,930.36
2017-01-30T01:51:09.862Z,930.37
2017-01-30T01:51:30.299Z,930.36
2017-01-30T01:51:50.072Z,930.34
2017-01-30T01:52:10.450Z,930.36
2017-01-30T01:52:30.882Z,930.36
2017-01-30T01:52:50.628Z,930.36
2017-01-30T01:53:11.040Z,930.33
2017-01-30T01:53:31.434Z,930.34
2017-01-30T01:53:51.201Z,930.33
2017-01-30T01:54:11.560Z,930.36
2017-01-30T01:54:31.922Z,930.39
2017-01-30T01:54:52.311Z,930.41
2017-01-30T01:55:12.742Z,930.38
2017-01-30T01:55:31.895Z,930.36
2017-01-30T01:55:52.305Z,930.37
2017-01-30T01:56:12.718Z,930.37
2017-01-30T01:56:32.492Z,930.36
2017-01-30T01:56:52.915Z,930.33
2017-01-30T01:57:13.305Z,930.32
2017-01-30T01:57:33.729Z,930.36
2017-01-30T01:57:54.170Z,930.32
2017-01-30T01:58:13.919Z,930.32
2017-01-30T01:58:34.321Z,930.35
2017-01-30T01:58:54.736Z,930.38
2017-01-30T01:59:15.159Z,930.34
2017-01-30T01:59:35.545Z,930.34
2017-01-30T01:59:55.910Z,930.37
2017-01-30T02:00:16.557Z,930.34
2017-01-30T02:00:36.964Z,930.35
2017-01-30T02:00:56.709Z,930.36
2017-01-30T02:01:17.104Z,930.37
2017-01-30T02:01:37.498Z,930.33
2017-01-30T02:01:57.888Z,930.35
2017-01-30T02:02:18.322Z,930.31
2017-01-30T02:02:38.736Z,930.35
2017-01-30T02:02:59.153Z,930.36
2017-01-30T02:03:19.558Z,930.35
2017-01-30T02:03:38.666Z,930.34
2017-01-30T02:03:59.101Z,930.34
2017-01-30T02:04:19.528Z,930.31
2017-01-30T02:04:39.918Z,930.3
2017-01-30T02:05:00.323Z,930.33
2017-01-30T02:05:20.074Z,930.33
2017-01-30T02:05:40.469Z,930.34
2017-01-30T02:06:00.887Z,930.34
2017-01-30T02:06:20.650Z,930.33
2017-01-30T02:06:41.044Z,930.35
2017-01-30T02:07:01.480Z,930.33
2017-01-30T02:07:21.866Z,930.34
2017-01-30T02:07:42.269Z,930.31
2017-01-30T02:08:02.664Z,930.33
2017-01-30T02:08:22.418Z,930.31
2017-01-30T02:08:42.822Z,930.37
2017-01-30T02:09:03.258Z,930.36
2017-01-30T02:09:23.690Z,930.33
2017-01-30T02:09:44.085Z,930.32
2017-01-30T02:10:04.479Z,930.32
2017-01-30T02:10:24.864Z,930.35
2017-01-30T02:10:45.268Z,930.35
2017-01-30T02:11:05.680Z,930.31
2017-01-30T02:11:26.110Z,930.32
2017-01-30T02:11:46.533Z,930.32
2017-01-30T02:12:06.946Z,930.32
2017-01-30T02:12:27.366Z,930.31
2017-01-30T02:12:47.775Z,930.31
2017-01-30T02:13:08.181Z,930.28
2017-01-30T02:13:27.927Z,930.3
2017-01-30T02:13:48.356Z,930.33
2017-01-30T02:14:08.751Z,930.32
2017-01-30T02:14:29.153Z,930.32
2017-01-30T02:14:49.530Z,930.31
2017-01-30T02:15:23.694Z,930.31
2017-01-30T02:15:44.124Z,930.33
2017-01-30T02:16:03.892Z,930.33
2017-01-30T02:16:24.304Z,930.31
2017-01-30T02:16:44.675Z,930.24
2017-01-30T02:17:05.074Z,930.28
2017-01-30T02:17:25.507Z,930.24
2017-01-30T02:17:45.910Z,930.21
2017-01-30T02:18:06.331Z,930.25
2017-01-30T02:18:26.752Z,930.2
2017-01-30T02:18:46.519Z,930.25
2017-01-30T02:19:06.898Z,930.23
2017-01-30T02:19:27.307Z,930.18
2017-01-30T02:19:47.745Z,930.2
2017-01-30T02:20:07.504Z,930.22
2017-01-30T02:20:27.925Z,930.2
2017-01-30T02:20:48.344Z,930.18
2017-01-30T02:21:08.772Z,930.17
2017-01-30T02:21:28.520Z,930.17
2017-01-30T02:21:48.916Z,930.18
2017-01-30T02:22:09.280Z,930.16
2017-01-30T02:22:29.647Z,930.18
2017-01-30T02:22:50.058Z,930.17
2017-01-30T02:23:10.475Z,930.14
2017-01-30T02:23:30.908Z,930.17
2017-01-30T02:23:51.329Z,930.17
2017-01-30T02:24:11.753Z,930.15
2017-01-30T02:24:32.119Z,930.16
2017-01-30T02:24:52.487Z,930.17
2017-01-30T02:25:12.888Z,930.16
2017-01-30T02:25:33.273Z,930.13
2017-01-30T02:25:53.675Z,930.1
2017-01-30T02:26:14.088Z,930.15
2017-01-30T02:26:34.491Z,930.15
2017-01-30T02:26:54.926Z,930.15
2017-01-30T02:27:14.718Z,930.12
2017-01-30T02:27:35.122Z,930.12
2017-01-30T02:27:55.503Z,930.09
2017-01-30T02:28:15.896Z,930.13
2017-01-30T02:28:36.297Z,930.12
2017-01-30T02:28:56.734Z,930.12
2017-01-30T02:29:17.119Z,930.12
2017-01-30T02:29:37.532Z,930.12
2017-01-30T02:29:57.950Z,930.1
2017-01-30T02:30:18.378Z,930.1
2017-01-30T02:30:38.791Z,930.08
2017-01-30T02:30:59.190Z,930.08
2017-01-30T02:31:19.535Z,930.08
2017-01-30T02:31:40.023Z,930.1
2017-01-30T02:31:59.777Z,930.08
2017-01-30T02:32:19.574Z,930.08
2017-01-30T02:32:39.965Z,930.09
2017-01-30T02:32:59.733Z,930.11
2017-01-30T02:33:20.119Z,930.1
2017-01-30T02:33:40.541Z,930.1
2017-01-30T02:34:00.956Z,930.07
2017-01-30T02:34:21.388Z,930.08
2017-01-30T02:34:41.759Z,930.06
2017-01-30T02:35:01.564Z,930.07
2017-01-30T02:35:21.977Z,930.05
2017-01-30T02:35:42.377Z,930.07
2017-01-30T02:36:02.792Z,930.07
2017-01-30T02:36:23.205Z,930.11
2017-01-30T02:36:43.601Z,930.08
2017-01-30T02:37:03.978Z,930.07
2017-01-30T02:37:24.398Z,930.09
2017-01-30T02:37:44.806Z,930.08
2017-01-30T02:38:05.191Z,930.11
2017-01-30T02:38:24.956Z,930.07
2017-01-30T02:38:45.351Z,930.07
2017-01-30T02:39:05.788Z,930.09
2017-01-30T02:39:25.559Z,930.07
2017-01-30T02:39:45.989Z,930.08
2017-01-30T02:40:06.421Z,930.05
2017-01-30T02:40:25.579Z,930.07
2017-01-30T02:40:45.963Z,930.05
2017-01-30T02:41:05.700Z,930.05
2017-01-30T02:41:25.497Z,930.08
2017-01-30T02:41:45.884Z,930.03
2017-01-30T02:42:06.324Z,930.03
2017-01-30T02:42:26.709Z,930.06
2017-01-30T02:42:47.132Z,930.04
2017-01-30T02:43:07.523Z,930.05
2017-01-30T02:43:27.908Z,930
2017-01-30T02:43:48.297Z,930.06
2017-01-30T02:44:08.681Z,930.04
2017-01-30T02:44:29.114Z,929.98
2017-01-30T02:44:49.524Z,930.01
2017-01-30T02:45:09.905Z,930.04
2017-01-30T02:45:30.280Z,930
2017-01-30T02:45:50.674Z,929.97
2017-01-30T02:46:10.481Z,930
2017-01-30T02:46:29.617Z,929.96
2017-01-30T02:46:50.030Z,929.97
2017-01-30T02:47:10.488Z,930.01
2017-01-30T02:47:30.871Z,929.99
2017-01-30T02:47:51.303Z,929.94
2017-01-30T02:48:11.050Z,929.95
2017-01-30T02:48:31.510Z,929.92
2017-01-30T02:48:51.905Z,929.92
2017-01-30T02:49:12.283Z,929.91
2017-01-30T02:49:31.991Z,929.96
2017-01-30T02:49:52.392Z,929.91
2017-01-30T02:50:12.750Z,929.92
2017-01-30T02:50:33.142Z,929.97
2017-01-30T02:50:53.506Z,929.89
2017-01-30T02:51:13.912Z,929.95
2017-01-30T02:51:34.319Z,929.92
2017-01-30T02:51:54.745Z,929.9
2017-01-30T02:52:14.499Z,929.9
2017-01-30T02:52:34.842Z,929.93
2017-01-30T02:52:55.276Z,929.9
2017-01-30T02:53:15.047Z,929.89
2017-01-30T02:53:35.465Z,929.85
2017-01-30T02:53:55.885Z,929.88
2017-01-30T02:54:14.966Z,929.88
2017-01-30T02:54:35.374Z,929.88
2017-01-30T02:54:55.794Z,929.9
2017-01-30T02:55:16.183Z,929.91
2017-01-30T02:55:36.589Z,929.91
2017-01-30T02:55:56.357Z,929.9
2017-01-30T02:56:16.785Z,929.9
2017-01-30T02:56:37.214Z,929.87
2017-01-30T02:56:57.628Z,929.88
2017-01-30T02:57:18.042Z,929.86
2017-01-30T02:57:38.440Z,929.84
2017-01-30T02:57:58.832Z,929.88
2017-01-30T02:58:19.291Z,929.84
2017-01-30T02:58:39.696Z,929.87
2017-01-30T02:59:00.105Z,929.83
2017-01-30T02:59:19.847Z,929.84
2017-01-30T02:59:40.231Z,929.89
2017-01-30T03:00:00.661Z,929.83
2017-01-30T03:00:20.428Z,929.85
2017-01-30T03:00:40.848Z,929.88
2017-01-30T03:01:00.618Z,929.88
2017-01-30T03:01:21.014Z,929.85
2017-01-30T03:01:41.080Z,929.85
2017-01-30T03:02:00.979Z,929.82
2017-01-30T03:02:21.345Z,929.84
2017-01-30T03:02:41.731Z,929.87
2017-01-30T03:03:02.160Z,929.83
2017-01-30T03:03:21.939Z,929.87
2017-01-30T03:03:42.328Z,929.86
2017-01-30T03:04:02.728Z,929.84
2017-01-30T03:04:22.507Z,929.85
2017-01-30T03:04:42.902Z,929.85
2017-01-30T03:05:03.300Z,929.82
2017-01-30T03:05:23.075Z,929.8
2017-01-30T03:05:43.447Z,929.8
2017-01-30T03:06:03.864Z,929.81
2017-01-30T03:06:23.609Z,929.8
2017-01-30T03:06:44.025Z,929.79
2017-01-30T03:07:04.456Z,929.82
2017-01-30T03:07:23.578Z,929.81
2017-01-30T03:07:43.971Z,929.83
2017-01-30T03:08:04.386Z,929.82
2017-01-30T03:08:24.182Z,929.88
2017-01-30T03:08:44.600Z,929.85
2017-01-30T03:09:05.020Z,929.85
2017-01-30T03:09:24.767Z,929.87
2017-01-30T03:09:45.199Z,929.9
2017-01-30T03:10:04.971Z,929.83
2017-01-30T03:10:24.777Z,929.85
2017-01-30T03:10:45.208Z,929.85
2017-01-30T03:11:04.924Z,929.84
2017-01-30T03:11:25.343Z,929.82
2017-01-30T03:11:45.737Z,929.78
2017-01-30T03:12:06.191Z,929.75
2017-01-30T03:12:26.583Z,929.73
2017-01-30T03:12:46.986Z,929.74
2017-01-30T03:13:07.391Z,929.75
2017-01-30T03:13:27.793Z,929.73
2017-01-30T03:13:48.213Z,929.76
2017-01-30T03:14:08.632Z,929.77
2017-01-30T03:14:29.068Z,929.7
2017-01-30T03:14:49.492Z,929.7
2017-01-30T03:15:09.877Z,929.72
2017-01-30T03:15:30.316Z,929.71
2017-01-30T03:15:50.717Z,929.69
2017-01-30T03:16:11.106Z,929.7
2017-01-30T03:16:31.532Z,929.71
2017-01-30T03:16:51.977Z,929.72
2017-01-30T03:17:12.406Z,929.68
2017-01-30T03:17:32.817Z,929.69
2017-01-30T03:17:53.240Z,929.65
2017-01-30T03:18:13.622Z,929.68
2017-01-30T03:18:34.019Z,929.7
2017-01-30T03:18:54.435Z,929.67
2017-01-30T03:19:14.184Z,929.67
2017-01-30T03:19:34.618Z,929.65
2017-01-30T03:19:54.411Z,929.66
2017-01-30T03:20:14.859Z,929.63
2017-01-30T03:20:34.615Z,929.64
2017-01-30T03:20:54.945Z,929.62
2017-01-30T03:21:14.737Z,929.61
2017-01-30T03:21:35.124Z,929.63
2017-01-30T03:21:55.549Z,929.63
2017-01-30T03:22:15.964Z,929.66
2017-01-30T03:22:36.339Z,929.57
2017-01-30T03:22:56.707Z,929.6
2017-01-30T03:23:17.074Z,929.58
2017-01-30T03:23:37.482Z,929.55
2017-01-30T03:23:57.900Z,929.55
2017-01-30T03:24:17.651Z,929.57
2017-01-30T03:24:38.044Z,929.59
2017-01-30T03:24:58.441Z,929.57
2017-01-30T03:25:18.818Z,929.55
2017-01-30T03:25:38.583Z,929.57
2017-01-30T03:25:58.372Z,929.54
2017-01-30T03:26:17.491Z,929.52
2017-01-30T03:26:37.950Z,929.52
2017-01-30T03:26:58.383Z,929.5
2017-01-30T03:27:18.172Z,929.5
2017-01-30T03:27:38.581Z,929.51
2017-01-30T03:27:58.982Z,929.51
2017-01-30T03:28:19.364Z,929.47
2017-01-30T03:28:39.735Z,929.49
2017-01-30T03:29:00.123Z,929.47
2017-01-30T03:29:20.534Z,929.45
2017-01-30T03:29:40.968Z,929.46
2017-01-30T03:30:01.384Z,929.45
2017-01-30T03:30:21.798Z,929.48
2017-01-30T03:30:42.211Z,929.46
2017-01-30T03:31:02.625Z,929.42
2017-01-30T03:31:22.397Z,929.41
2017-01-30T03:31:42.794Z,929.42
2017-01-30T03:32:03.177Z,929.4
2017-01-30T03:32:22.941Z,929.41
2017-01-30T03:32:43.322Z,929.38
2017-01-30T03:33:03.060Z,929.38
2017-01-30T03:33:22.815Z,929.36
2017-01-30T03:33:43.250Z,929.34
2017-01-30T03:34:03.021Z,929.37
2017-01-30T03:34:23.445Z,929.32
2017-01-30T03:34:43.885Z,929.34
2017-01-30T03:35:04.287Z,929.33
2017-01-30T03:35:24.745Z,929.34
2017-01-30T03:35:45.149Z,929.29
2017-01-30T03:36:05.573Z,929.32
2017-01-30T03:36:25.308Z,929.29
2017-01-30T03:36:45.724Z,929.32
2017-01-30T03:37:06.109Z,929.29
2017-01-30T03:37:26.561Z,929.29
2017-01-30T03:37:46.956Z,929.28
2017-01-30T03:38:06.720Z,929.24
2017-01-30T03:38:27.136Z,929.24
2017-01-30T03:38:47.532Z,929.26
2017-01-30T03:39:07.926Z,929.23
2017-01-30T03:39:28.353Z,929.27
2017-01-30T03:39:48.726Z,929.29
2017-01-30T03:40:09.129Z,929.24
2017-01-30T03:40:29.510Z,929.26
2017-01-30T03:40:49.929Z,929.24
2017-01-30T03:41:09.694Z,929.26
2017-01-30T03:41:30.114Z,929.28
2017-01-30T03:41:50.563Z,929.26
2017-01-30T03:42:10.985Z,929.29
2017-01-30T03:42:30.703Z,929.26
2017-01-30T03:42:51.107Z,929.26
2017-01-30T03:43:11.518Z,929.2
2017-01-30T03:43:31.947Z,929.18
2017-01-30T03:43:52.357Z,929.18
2017-01-30T03:44:12.749Z,929.19
2017-01-30T03:44:32.536Z,929.17
2017-01-30T03:44:52.930Z,929.18
2017-01-30T03:45:13.333Z,929.16
2017-01-30T03:45:33.737Z,929.18
2017-01-30T03:45:54.165Z,929.14
2017-01-30T03:46:14.599Z,929.13
2017-01-30T03:46:35.041Z,929.17
2017-01-30T03:46:55.433Z,929.14
2017-01-30T03:47:15.834Z,929.12
2017-01-30T03:47:36.241Z,929.09
2017-01-30T03:47:56.653Z,929.14
2017-01-30T03:48:17.015Z,929.17
2017-01-30T03:48:37.399Z,929.12
2017-01-30T03:48:57.809Z,929.14
2017-01-30T03:49:19.170Z,929.16
2017-01-30T03:49:40.406Z,929.14
2017-01-30T03:50:00.786Z,929.15
2017-01-30T03:50:20.548Z,929.12
2017-01-30T03:50:40.959Z,929.14
2017-01-30T03:51:01.361Z,929.15
2017-01-30T03:51:21.129Z,929.1
2017-01-30T03:51:41.560Z,929.12
2017-01-30T03:52:01.978Z,929.14
2017-01-30T03:52:21.087Z,929.1
2017-01-30T03:52:41.481Z,929.13
2017-01-30T03:53:01.913Z,929.12
2017-01-30T03:53:22.308Z,929.11
2017-01-30T03:53:42.752Z,929.08
2017-01-30T03:54:03.170Z,929.07
2017-01-30T03:54:23.577Z,929.05
2017-01-30T03:54:43.980Z,929.05
2017-01-30T03:55:03.738Z,929.04
2017-01-30T03:55:22.856Z,929.02
2017-01-30T03:55:43.267Z,929.01
2017-01-30T03:56:03.639Z,929.04
2017-01-30T03:56:24.024Z,929.01
2017-01-30T03:56:44.414Z,929.02
2017-01-30T03:57:04.839Z,929
2017-01-30T03:57:24.611Z,928.99
2017-01-30T03:57:45.030Z,928.96
2017-01-30T03:58:05.385Z,928.99
2017-01-30T03:58:25.159Z,928.97
2017-01-30T03:58:45.580Z,928.99
2017-01-30T03:59:06.004Z,929
2017-01-30T03:59:25.812Z,928.98
2017-01-30T03:59:46.212Z,929.01
2017-01-30T04:00:06.592Z,928.98
2017-01-30T04:00:25.756Z,929.01
2017-01-30T04:00:46.103Z,929.03
2017-01-30T04:01:06.521Z,928.97
2017-01-30T04:01:27.068Z,929
2017-01-30T04:01:47.467Z,929.01
2017-01-30T04:02:07.865Z,928.99
2017-01-30T04:02:28.230Z,928.99
2017-01-30T04:02:48.619Z,928.96
2017-01-30T04:03:08.999Z,928.99
2017-01-30T04:03:28.741Z,928.98
2017-01-30T04:03:49.149Z,928.97
2017-01-30T04:04:08.914Z,928.97
2017-01-30T04:04:28.730Z,928.99
2017-01-30T04:04:49.109Z,928.94
2017-01-30T04:05:09.518Z,928.95
2017-01-30T04:05:29.942Z,928.93
2017-01-30T04:05:50.360Z,928.89
2017-01-30T04:06:10.776Z,928.91
2017-01-30T04:06:31.146Z,928.89
2017-01-30T04:06:51.541Z,928.93
2017-01-30T04:07:11.935Z,928.9
2017-01-30T04:07:32.418Z,928.93
2017-01-30T04:07:52.836Z,928.9
2017-01-30T04:08:12.596Z,928.87
2017-01-30T04:08:32.982Z,928.92
2017-01-30T04:08:53.378Z,928.89
2017-01-30T04:09:13.795Z,928.88
2017-01-30T04:09:34.194Z,928.9
2017-01-30T04:09:54.579Z,928.89
2017-01-30T04:10:14.968Z,928.93
2017-01-30T04:10:35.360Z,928.9
2017-01-30T04:10:55.758Z,928.93
2017-01-30T04:11:16.191Z,928.93
2017-01-30T04:11:36.612Z,928.91
2017-01-30T04:11:56.994Z,928.91
2017-01-30T04:12:17.384Z,928.89
2017-01-30T04:12:37.812Z,928.9
2017-01-30T04:12:58.208Z,928.89
2017-01-30T04:13:18.591Z,928.98
2017-01-30T04:13:39.039Z,928.94
2017-01-30T04:13:59.459Z,928.92
2017-01-30T04:14:19.830Z,928.93